Wetterdaten: Woche 01.04.13 - 07.04.13 (KW14)
Datum Zeit Temp. Aussen +5cm Feuchte Auss Luftdruck Regen Sonnenschein Regendauer UV Solar Windben
01.04.2013 00:00 -1,9 C -3,9 C 86 % 1012,5 hPa 0,0 l/m 0,00 h 0,00 h 0,0 UV-I 0 W/m 0,0 km/h (0 Bft)
01.04.2013 01:00 -2,7 C -4,4 C 89 % 1012,4 hPa 0,0 l/m 0,00 h 0,00 h 0,0 UV-I 0 W/m 0,0 km/h (0 Bft)
01.04.2013 02:00 -3,0 C -4,6 C 91 % 1012,3 hPa 0,0 l/m 0,00 h 0,00 h 0,0 UV-I 0 W/m 0,0 km/h (0 Bft)
01.04.2013 03:00 -3,2 C -5,1 C 92 % 1012,1 hPa 0,0 l/m 0,00 h 0,00 h 0,0 UV-I 0 W/m 0,0 km/h (0 Bft)
01.04.2013 04:00 -3,8 C -5,6 C 92 % 1011,8 hPa 0,0 l/m 0,00 h 0,00 h 0,0 UV-I 0 W/m 0,0 km/h (0 Bft)
01.04.2013 05:00 -4,5 C -6,0 C 92 % 1011,5 hPa 0,0 l/m 0,00 h 0,00 h 0,0 UV-I 0 W/m 0,0 km/h (0 Bft)
01.04.2013 06:00 -4,9 C -5,9 C 93 % 1011,3 hPa 0,0 l/m 0,00 h 0,00 h 0,0 UV-I 0 W/m 0,0 km/h (0 Bft)
01.04.2013 07:00 -4,4 C -5,6 C 95 % 1011,5 hPa 0,0 l/m 0,00 h 0,00 h 0,0 UV-I 14 W/m 0,0 km/h (0 Bft)
01.04.2013 08:00 -3,7 C -4,3 C 96 % 1011,8 hPa 0,0 l/m 0,00 h 0,00 h 0,0 UV-I 39 W/m 0,0 km/h (0 Bft)
01.04.2013 09:00 -0,9 C -0,9 C 92 % 1011,9 hPa 0,0 l/m 0,90 h 0,00 h 0,0 UV-I 254 W/m 2,8 km/h (1 Bft)
01.04.2013 10:00 2,4 C 1,6 C 69 % 1011,7 hPa 0,0 l/m 0,90 h 0,00 h 0,5 UV-I 413 W/m 10,6 km/h (2 Bft)
01.04.2013 11:00 4,1 C 3,7 C 58 % 1011,4 hPa 0,0 l/m 0,97 h 0,00 h 0,9 UV-I 526 W/m 16,4 km/h (3 Bft)
01.04.2013 12:00 5,3 C 5,2 C 56 % 1011,1 hPa 0,0 l/m 0,97 h 0,00 h 1,3 UV-I 552 W/m 16,6 km/h (3 Bft)
01.04.2013 13:00 6,6 C 6,3 C 54 % 1010,9 hPa 0,0 l/m 0,97 h 0,00 h 1,5 UV-I 608 W/m 12,6 km/h (3 Bft)
01.04.2013 14:00 7,6 C 7,0 C 50 % 1010,5 hPa 0,0 l/m 0,97 h 0,00 h 1,5 UV-I 642 W/m 16,0 km/h (3 Bft)
01.04.2013 15:00 8,3 C 7,7 C 48 % 1010,1 hPa 0,0 l/m 0,97 h 0,00 h 1,1 UV-I 597 W/m 15,4 km/h (3 Bft)
01.04.2013 16:00 8,6 C 10,1 C 47 % 1009,6 hPa 0,0 l/m 0,97 h 0,00 h 0,6 UV-I 485 W/m 15,9 km/h (3 Bft)
01.04.2013 17:00 8,4 C 8,0 C 47 % 1009,2 hPa 0,0 l/m 0,97 h 0,00 h 0,0 UV-I 359 W/m 16,3 km/h (3 Bft)
01.04.2013 18:00 7,6 C 7,2 C 46 % 1009,2 hPa 0,0 l/m 0,93 h 0,00 h 0,0 UV-I 189 W/m 12,8 km/h (3 Bft)
01.04.2013 19:00 6,3 C 4,3 C 48 % 1009,4 hPa 0,0 l/m 0,27 h 0,00 h 0,0 UV-I 40 W/m 8,2 km/h (2 Bft)
01.04.2013 20:00 4,6 C 2,3 C 52 % 1009,7 hPa 0,0 l/m 0,00 h 0,00 h 0,0 UV-I 5 W/m 3,7 km/h (1 Bft)
01.04.2013 21:00 3,4 C 1,0 C 57 % 1010,0 hPa 0,0 l/m 0,00 h 0,00 h 0,0 UV-I 0 W/m 1,3 km/h (1 Bft)
01.04.2013 22:00 2,7 C 0,7 C 59 % 1010,0 hPa 0,0 l/m 0,00 h 0,00 h 0,0 UV-I 0 W/m 2,8 km/h (1 Bft)
01.04.2013 23:00 2,2 C -0,0 C 61 % 1010,1 hPa 0,0 l/m 0,00 h 0,00 h 0,0 UV-I 0 W/m 1,9 km/h (1 Bft)
02.04.2013 00:00 1,4 C -0,7 C 63 % 1010,2 hPa 0,0 l/m 0,00 h 0,00 h 0,0 UV-I 0 W/m 1,9 km/h (1 Bft)
02.04.2013 01:00 0,6 C -2,4 C 66 % 1010,2 hPa 0,0 l/m 0,00 h 0,00 h 0,0 UV-I 0 W/m 0,0 km/h (0 Bft)
02.04.2013 02:00 -0,4 C -3,1 C 70 % 1010,4 hPa 0,0 l/m 0,00 h 0,00 h 0,0 UV-I 0 W/m 0,2 km/h (0 Bft)
02.04.2013 03:00 -1,0 C -3,2 C 73 % 1010,7 hPa 0,0 l/m 0,00 h 0,00 h 0,0 UV-I 0 W/m 0,0 km/h (0 Bft)
02.04.2013 04:00 -1,5 C -3,8 C 75 % 1010,5 hPa 0,0 l/m 0,00 h 0,00 h 0,0 UV-I 0 W/m 0,1 km/h (0 Bft)
02.04.2013 05:00 -2,0 C -3,9 C 77 % 1010,6 hPa 0,0 l/m 0,00 h 0,00 h 0,0 UV-I 0 W/m 0,0 km/h (0 Bft)
02.04.2013 06:00 -2,1 C -4,1 C 79 % 1010,7 hPa 0,0 l/m 0,00 h 0,00 h 0,0 UV-I 0 W/m 0,4 km/h (0 Bft)
02.04.2013 07:00 -1,8 C -3,2 C 80 % 1010,9 hPa 0,0 l/m 0,00 h 0,00 h 0,0 UV-I 14 W/m 4,9 km/h (1 Bft)
02.04.2013 08:00 -0,7 C -1,8 C 76 % 1011,2 hPa 0,0 l/m 0,00 h 0,00 h 0,0 UV-I 41 W/m 8,9 km/h (2 Bft)
02.04.2013 09:00 1,2 C 0,6 C 69 % 1011,4 hPa 0,0 l/m 0,93 h 0,00 h 0,0 UV-I 276 W/m 14,5 km/h (3 Bft)
02.04.2013 10:00 3,5 C 2,9 C 60 % 1011,6 hPa 0,0 l/m 0,97 h 0,00 h 0,6 UV-I 432 W/m 17,0 km/h (3 Bft)
02.04.2013 11:00 5,3 C 4,9 C 54 % 1011,8 hPa 0,0 l/m 0,97 h 0,00 h 1,0 UV-I 558 W/m 15,3 km/h (3 Bft)
02.04.2013 12:00 6,5 C 6,3 C 51 % 1011,8 hPa 0,0 l/m 0,97 h 0,00 h 1,5 UV-I 641 W/m 17,7 km/h (3 Bft)
02.04.2013 13:00 7,5 C 7,3 C 49 % 1011,6 hPa 0,0 l/m 0,97 h 0,00 h 1,7 UV-I 674 W/m 20,1 km/h (4 Bft)
02.04.2013 14:00 8,3 C 7,8 C 47 % 1011,4 hPa 0,0 l/m 0,97 h 0,00 h 1,6 UV-I 670 W/m 18,4 km/h (3 Bft)
02.04.2013 15:00 8,8 C 8,3 C 44 % 1011,2 hPa 0,0 l/m 0,97 h 0,00 h 1,2 UV-I 617 W/m 20,8 km/h (4 Bft)
02.04.2013 16:00 9,2 C 11,1 C 43 % 1011,0 hPa 0,0 l/m 0,97 h 0,00 h 0,7 UV-I 514 W/m 20,0 km/h (4 Bft)
02.04.2013 17:00 9,1 C 8,8 C 41 % 1010,9 hPa 0,0 l/m 0,98 h 0,00 h 0,0 UV-I 384 W/m 18,1 km/h (3 Bft)
02.04.2013 18:00 8,2 C 7,7 C 43 % 1011,1 hPa 0,0 l/m 0,90 h 0,00 h 0,0 UV-I 204 W/m 16,5 km/h (3 Bft)
02.04.2013 19:00 6,4 C 4,6 C 49 % 1011,8 hPa 0,0 l/m 0,33 h 0,00 h 0,0 UV-I 45 W/m 12,5 km/h (3 Bft)
02.04.2013 20:00 4,7 C 2,9 C 55 % 1012,6 hPa 0,0 l/m 0,00 h 0,00 h 0,0 UV-I 6 W/m 11,1 km/h (2 Bft)
02.04.2013 21:00 3,7 C 2,0 C 59 % 1013,1 hPa 0,0 l/m 0,00 h 0,00 h 0,0 UV-I 0 W/m 9,1 km/h (2 Bft)
02.04.2013 22:00 2,8 C 1,0 C 63 % 1013,6 hPa 0,0 l/m 0,00 h 0,00 h 0,0 UV-I 0 W/m 7,7 km/h (2 Bft)
02.04.2013 23:00 1,9 C -0,1 C 66 % 1014,0 hPa 0,0 l/m 0,00 h 0,00 h 0,0 UV-I 0 W/m 4,6 km/h (1 Bft)
03.04.2013 00:00 0,7 C -1,9 C 69 % 1014,3 hPa 0,0 l/m 0,00 h 0,00 h 0,0 UV-I 0 W/m 0,1 km/h (0 Bft)
03.04.2013 01:00 -0,4 C -2,7 C 72 % 1014,4 hPa 0,0 l/m 0,00 h 0,00 h 0,0 UV-I 0 W/m 0,2 km/h (0 Bft)
03.04.2013 02:00 -0,8 C -2,7 C 74 % 1014,4 hPa 0,0 l/m 0,00 h 0,00 h 0,0 UV-I 0 W/m 0,2 km/h (0 Bft)
03.04.2013 03:00 -0,7 C -2,5 C 77 % 1014,7 hPa 0,0 l/m 0,00 h 0,00 h 0,0 UV-I 0 W/m 0,6 km/h (0 Bft)
03.04.2013 04:00 -0,8 C -2,7 C 79 % 1014,8 hPa 0,0 l/m 0,00 h 0,00 h 0,0 UV-I 0 W/m 0,0 km/h (0 Bft)
03.04.2013 05:00 -1,1 C -2,8 C 81 % 1014,9 hPa 0,0 l/m 0,00 h 0,00 h 0,0 UV-I 0 W/m 0,2 km/h (0 Bft)
03.04.2013 06:00 -1,1 C -2,6 C 83 % 1014,9 hPa 0,0 l/m 0,00 h 0,00 h 0,0 UV-I 0 W/m 0,4 km/h (0 Bft)
03.04.2013 07:00 -0,5 C -1,2 C 82 % 1015,0 hPa 0,0 l/m 0,00 h 0,00 h 0,0 UV-I 15 W/m 2,8 km/h (1 Bft)
03.04.2013 08:00 0,5 C -0,1 C 79 % 1015,2 hPa 0,0 l/m 0,00 h 0,00 h 0,0 UV-I 40 W/m 5,0 km/h (1 Bft)
03.04.2013 09:00 1,5 C 1,6 C 75 % 1015,3 hPa 0,0 l/m 0,00 h 0,00 h 0,0 UV-I 112 W/m 10,6 km/h (2 Bft)
03.04.2013 10:00 3,2 C 4,0 C 69 % 1015,3 hPa 0,0 l/m 0,40 h 0,00 h 0,5 UV-I 283 W/m 14,3 km/h (3 Bft)
03.04.2013 11:00 4,3 C 4,6 C 64 % 1015,3 hPa 0,0 l/m 0,07 h 0,00 h 0,0 UV-I 209 W/m 15,6 km/h (3 Bft)
03.04.2013 12:00 4,8 C 5,9 C 62 % 1015,1 hPa 0,0 l/m 0,00 h 0,00 h 0,6 UV-I 273 W/m 17,8 km/h (3 Bft)
03.04.2013 13:00 5,7 C 7,1 C 59 % 1014,9 hPa 0,0 l/m 0,60 h 0,00 h 1,0 UV-I 404 W/m 21,6 km/h (4 Bft)
03.04.2013 14:00 6,4 C 7,1 C 56 % 1014,5 hPa 0,0 l/m 0,23 h 0,00 h 0,9 UV-I 291 W/m 20,1 km/h (4 Bft)
03.04.2013 15:00 6,4 C 6,9 C 56 % 1014,3 hPa 0,0 l/m 0,00 h 0,00 h 0,5 UV-I 190 W/m 14,6 km/h (3 Bft)
03.04.2013 16:00 6,6 C 6,9 C 56 % 1013,9 hPa 0,0 l/m 0,00 h 0,00 h 0,0 UV-I 180 W/m 11,8 km/h (2 Bft)
03.04.2013 17:00 6,5 C 6,2 C 57 % 1013,5 hPa 0,0 l/m 0,07 h 0,00 h 0,0 UV-I 150 W/m 10,7 km/h (2 Bft)
03.04.2013 18:00 6,0 C 5,0 C 57 % 1013,3 hPa 0,0 l/m 0,40 h 0,00 h 0,0 UV-I 136 W/m 15,1 km/h (3 Bft)
03.04.2013 19:00 4,4 C 2,8 C 61 % 1013,6 hPa 0,0 l/m 0,00 h 0,00 h 0,0 UV-I 24 W/m 12,5 km/h (3 Bft)
03.04.2013 20:00 2,8 C 1,1 C 65 % 1014,1 hPa 0,0 l/m 0,00 h 0,00 h 0,0 UV-I 5 W/m 6,5 km/h (2 Bft)
03.04.2013 21:00 1,9 C 0,1 C 68 % 1014,4 hPa 0,0 l/m 0,00 h 0,00 h 0,0 UV-I 0 W/m 3,5 km/h (1 Bft)
03.04.2013 22:00 1,8 C 0,7 C 69 % 1014,3 hPa 0,0 l/m 0,00 h 0,00 h 0,0 UV-I 0 W/m 3,9 km/h (1 Bft)
03.04.2013 23:00 2,4 C 1,2 C 66 % 1014,0 hPa 0,0 l/m 0,00 h 0,00 h 0,0 UV-I 0 W/m 14,5 km/h (3 Bft)
04.04.2013 00:00 2,3 C 1,2 C 65 % 1013,7 hPa 0,0 l/m 0,00 h 0,00 h 0,0 UV-I 0 W/m 11,3 km/h (2 Bft)
04.04.2013 01:00 2,1 C 1,2 C 66 % 1013,7 hPa 0,0 l/m 0,00 h 0,00 h 0,0 UV-I 0 W/m 9,8 km/h (2 Bft)
04.04.2013 02:00 1,9 C 0,8 C 65 % 1013,4 hPa 0,0 l/m 0,00 h 0,00 h 0,0 UV-I 0 W/m 7,8 km/h (2 Bft)
04.04.2013 03:00 1,7 C 0,7 C 66 % 1012,9 hPa 0,0 l/m 0,00 h 0,00 h 0,0 UV-I 0 W/m 7,9 km/h (2 Bft)
04.04.2013 04:00 1,4 C 0,3 C 66 % 1012,4 hPa 0,0 l/m 0,00 h 0,00 h 0,0 UV-I 0 W/m 5,2 km/h (1 Bft)
04.04.2013 05:00 1,3 C 0,1 C 68 % 1012,0 hPa 0,0 l/m 0,00 h 0,00 h 0,0 UV-I 0 W/m 7,4 km/h (2 Bft)
04.04.2013 06:00 1,3 C 0,1 C 71 % 1011,9 hPa 0,0 l/m 0,00 h 0,00 h 0,0 UV-I 0 W/m 4,3 km/h (1 Bft)
04.04.2013 07:00 1,2 C 0,2 C 73 % 1012,0 hPa 0,0 l/m 0,00 h 0,00 h 0,0 UV-I 13 W/m 4,2 km/h (1 Bft)
04.04.2013 08:00 1,4 C 1,0 C 75 % 1012,0 hPa 0,0 l/m 0,00 h 0,00 h 0,0 UV-I 47 W/m 7,2 km/h (2 Bft)
04.04.2013 09:00 2,1 C 2,2 C 75 % 1012,0 hPa 0,0 l/m 0,00 h 0,00 h 0,0 UV-I 100 W/m 10,7 km/h (2 Bft)
04.04.2013 10:00 3,0 C 3,3 C 73 % 1012,1 hPa 0,0 l/m 0,00 h 0,00 h 0,0 UV-I 147 W/m 11,7 km/h (2 Bft)
04.04.2013 11:00 3,9 C 4,8 C 71 % 1012,0 hPa 0,0 l/m 0,00 h 0,00 h 0,0 UV-I 217 W/m 11,1 km/h (2 Bft)
04.04.2013 12:00 4,8 C 6,1 C 69 % 1011,7 hPa 0,0 l/m 0,07 h 0,00 h 0,7 UV-I 304 W/m 15,4 km/h (3 Bft)
04.04.2013 13:00 5,7 C 7,0 C 66 % 1011,4 hPa 0,0 l/m 0,37 h 0,00 h 1,0 UV-I 383 W/m 17,4 km/h (3 Bft)
04.04.2013 14:00 6,2 C 7,2 C 64 % 1011,1 hPa 0,0 l/m 0,63 h 0,00 h 1,2 UV-I 440 W/m 17,1 km/h (3 Bft)
04.04.2013 15:00 7,1 C 7,6 C 61 % 1010,4 hPa 0,0 l/m 0,93 h 0,00 h 1,0 UV-I 476 W/m 15,4 km/h (3 Bft)
04.04.2013 16:00 7,8 C 8,5 C 58 % 1009,9 hPa 0,0 l/m 0,63 h 0,00 h 0,5 UV-I 321 W/m 13,5 km/h (3 Bft)
04.04.2013 17:00 7,6 C 7,6 C 60 % 1009,5 hPa 0,0 l/m 0,77 h 0,00 h 0,0 UV-I 256 W/m 15,5 km/h (3 Bft)
04.04.2013 18:00 6,9 C 6,0 C 61 % 1009,2 hPa 0,0 l/m 0,10 h 0,00 h 0,0 UV-I 104 W/m 11,3 km/h (2 Bft)
04.04.2013 19:00 5,7 C 4,4 C 65 % 1009,3 hPa 0,0 l/m 0,00 h 0,00 h 0,0 UV-I 17 W/m 8,3 km/h (2 Bft)
04.04.2013 20:00 5,0 C 3,4 C 68 % 1009,3 hPa 0,0 l/m 0,00 h 0,00 h 0,0 UV-I 0 W/m 8,6 km/h (2 Bft)
04.04.2013 21:00 4,3 C 2,7 C 70 % 1009,4 hPa 0,0 l/m 0,00 h 0,00 h 0,0 UV-I 0 W/m 8,6 km/h (2 Bft)
04.04.2013 22:00 3,8 C 2,2 C 72 % 1009,7 hPa 0,0 l/m 0,00 h 0,00 h 0,0 UV-I 0 W/m 8,0 km/h (2 Bft)
04.04.2013 23:00 3,2 C 1,7 C 75 % 1009,7 hPa 0,0 l/m 0,00 h 0,00 h 0,0 UV-I 0 W/m 4,2 km/h (1 Bft)
05.04.2013 00:00 2,4 C 0,6 C 78 % 1009,8 hPa 0,0 l/m 0,00 h 0,00 h 0,0 UV-I 0 W/m 0,4 km/h (0 Bft)
05.04.2013 01:00 1,6 C -0,1 C 81 % 1009,7 hPa 0,0 l/m 0,00 h 0,00 h 0,0 UV-I 0 W/m 0,1 km/h (0 Bft)
05.04.2013 02:00 1,0 C -0,7 C 84 % 1009,4 hPa 0,0 l/m 0,00 h 0,00 h 0,0 UV-I 0 W/m 1,1 km/h (1 Bft)
05.04.2013 03:00 0,7 C -0,9 C 84 % 1009,1 hPa 0,0 l/m 0,00 h 0,00 h 0,0 UV-I 0 W/m 2,0 km/h (1 Bft)
05.04.2013 04:00 1,3 C 0,5 C 82 % 1009,1 hPa 0,0 l/m 0,00 h 0,00 h 0,0 UV-I 0 W/m 5,4 km/h (1 Bft)
05.04.2013 05:00 1,9 C 1,0 C 80 % 1008,9 hPa 0,0 l/m 0,00 h 0,00 h 0,0 UV-I 0 W/m 4,2 km/h (1 Bft)
05.04.2013 06:00 2,1 C 1,2 C 79 % 1009,0 hPa 0,0 l/m 0,00 h 0,00 h 0,0 UV-I 0 W/m 3,5 km/h (1 Bft)
05.04.2013 07:00 2,2 C 1,2 C 79 % 1009,1 hPa 0,0 l/m 0,00 h 0,00 h 0,0 UV-I 9 W/m 7,3 km/h (2 Bft)
05.04.2013 08:00 2,2 C 1,3 C 79 % 1009,3 hPa 0,0 l/m 0,00 h 0,00 h 0,0 UV-I 20 W/m 7,6 km/h (2 Bft)
05.04.2013 09:00 2,3 C 1,8 C 79 % 1009,8 hPa 0,0 l/m 0,00 h 0,00 h 0,0 UV-I 35 W/m 10,7 km/h (2 Bft)
05.04.2013 10:00 2,4 C 1,8 C 79 % 1010,1 hPa 0,0 l/m 0,00 h 0,00 h 0,0 UV-I 45 W/m 10,5 km/h (2 Bft)
05.04.2013 11:00 2,6 C 2,3 C 79 % 1010,5 hPa 0,0 l/m 0,00 h 0,00 h 0,0 UV-I 60 W/m 9,9 km/h (2 Bft)
05.04.2013 12:00 2,8 C 2,5 C 79 % 1010,7 hPa 0,0 l/m 0,00 h 0,00 h 0,0 UV-I 71 W/m 9,7 km/h (2 Bft)
05.04.2013 13:00 3,1 C 3,0 C 78 % 1010,9 hPa 0,0 l/m 0,00 h 0,00 h 0,0 UV-I 86 W/m 7,5 km/h (2 Bft)
05.04.2013 14:00 3,6 C 3,7 C 77 % 1010,9 hPa 0,0 l/m 0,00 h 0,00 h 0,0 UV-I 101 W/m 6,6 km/h (2 Bft)
05.04.2013 15:00 3,8 C 3,8 C 76 % 1011,0 hPa 0,0 l/m 0,00 h 0,00 h 0,0 UV-I 99 W/m 8,1 km/h (2 Bft)
05.04.2013 16:00 4,1 C 4,0 C 76 % 1011,0 hPa 0,0 l/m 0,00 h 0,00 h 0,0 UV-I 72 W/m 5,4 km/h (1 Bft)
05.04.2013 17:00 4,2 C 3,5 C 76 % 1011,3 hPa 0,0 l/m 0,00 h 0,00 h 0,0 UV-I 37 W/m 3,3 km/h (1 Bft)
05.04.2013 18:00 4,2 C 3,4 C 77 % 1011,7 hPa 0,0 l/m 0,00 h 0,00 h 0,0 UV-I 19 W/m 2,7 km/h (1 Bft)
05.04.2013 19:00 4,1 C 3,0 C 78 % 1012,0 hPa 0,0 l/m 0,00 h 0,00 h 0,0 UV-I 9 W/m 0,8 km/h (0 Bft)
05.04.2013 20:00 3,9 C 2,9 C 79 % 1012,8 hPa 0,0 l/m 0,00 h 0,00 h 0,0 UV-I 0 W/m 1,4 km/h (1 Bft)
05.04.2013 21:00 3,7 C 2,3 C 80 % 1013,8 hPa 0,0 l/m 0,00 h 0,00 h 0,0 UV-I 0 W/m 1,5 km/h (1 Bft)
05.04.2013 22:00 3,5 C 2,3 C 82 % 1014,4 hPa 0,0 l/m 0,00 h 0,00 h 0,0 UV-I 0 W/m 1,2 km/h (1 Bft)
05.04.2013 23:00 3,3 C 2,3 C 83 % 1014,6 hPa 0,0 l/m 0,00 h 0,00 h 0,0 UV-I 0 W/m 0,3 km/h (0 Bft)
06.04.2013 00:00 3,1 C 2,2 C 84 % 1014,7 hPa 0,0 l/m 0,00 h 0,00 h 0,0 UV-I 0 W/m 0,3 km/h (0 Bft)
06.04.2013 01:00 3,1 C 2,0 C 85 % 1014,8 hPa 0,0 l/m 0,00 h 0,00 h 0,0 UV-I 0 W/m 0,1 km/h (0 Bft)
06.04.2013 02:00 3,0 C 1,8 C 86 % 1015,0 hPa 0,0 l/m 0,00 h 0,00 h 0,0 UV-I 0 W/m 0,9 km/h (0 Bft)
06.04.2013 03:00 2,9 C 1,8 C 87 % 1015,1 hPa 0,0 l/m 0,00 h 0,00 h 0,0 UV-I 0 W/m 0,3 km/h (0 Bft)
06.04.2013 04:00 2,8 C 1,8 C 88 % 1015,4 hPa 0,0 l/m 0,00 h 0,00 h 0,0 UV-I 0 W/m 3,2 km/h (1 Bft)
06.04.2013 05:00 2,7 C 1,8 C 90 % 1015,8 hPa 0,0 l/m 0,00 h 0,00 h 0,0 UV-I 0 W/m 5,1 km/h (1 Bft)
06.04.2013 06:00 2,4 C 1,3 C 93 % 1016,1 hPa 0,0 l/m 0,00 h 0,20 h 0,0 UV-I 0 W/m 6,6 km/h (2 Bft)
06.04.2013 07:00 2,3 C 1,2 C 95 % 1016,6 hPa 0,0 l/m 0,00 h 0,03 h 0,0 UV-I 13 W/m 5,9 km/h (2 Bft)
06.04.2013 08:00 2,3 C 1,8 C 96 % 1017,3 hPa 0,0 l/m 0,00 h 0,00 h 0,0 UV-I 26 W/m 10,7 km/h (2 Bft)
06.04.2013 09:00 2,4 C 1,8 C 95 % 1017,8 hPa 0,0 l/m 0,00 h 0,03 h 0,0 UV-I 43 W/m 10,6 km/h (2 Bft)
06.04.2013 10:00 2,7 C 1,9 C 94 % 1018,6 hPa 0,0 l/m 0,00 h 0,73 h 0,0 UV-I 55 W/m 10,6 km/h (2 Bft)
06.04.2013 11:00 2,8 C 2,1 C 94 % 1019,3 hPa 0,0 l/m 0,00 h 0,80 h 0,0 UV-I 84 W/m 10,9 km/h (2 Bft)
06.04.2013 12:00 3,2 C 2,7 C 92 % 1019,7 hPa 0,0 l/m 0,00 h 0,37 h 0,0 UV-I 113 W/m 15,0 km/h (3 Bft)
06.04.2013 13:00 4,0 C 4,4 C 88 % 1019,8 hPa 0,0 l/m 0,00 h 0,03 h 0,6 UV-I 206 W/m 13,8 km/h (3 Bft)
06.04.2013 14:00 4,5 C 4,7 C 82 % 1020,0 hPa 0,0 l/m 0,00 h 0,00 h 0,6 UV-I 170 W/m 12,6 km/h (3 Bft)
06.04.2013 15:00 6,7 C 8,1 C 67 % 1020,0 hPa 0,0 l/m 0,57 h 0,00 h 0,8 UV-I 375 W/m 11,9 km/h (2 Bft)
06.04.2013 16:00 7,9 C 8,8 C 57 % 1019,9 hPa 0,0 l/m 0,53 h 0,00 h 0,6 UV-I 312 W/m 10,9 km/h (2 Bft)
06.04.2013 17:00 8,5 C 8,6 C 51 % 1020,0 hPa 0,0 l/m 0,83 h 0,00 h 0,0 UV-I 309 W/m 10,3 km/h (2 Bft)
06.04.2013 18:00 8,0 C 7,1 C 52 % 1020,3 hPa 0,0 l/m 0,00 h 0,00 h 0,0 UV-I 99 W/m 4,2 km/h (1 Bft)
06.04.2013 19:00 7,1 C 5,6 C 54 % 1020,6 hPa 0,0 l/m 0,00 h 0,00 h 0,0 UV-I 23 W/m 0,5 km/h (0 Bft)
06.04.2013 20:00 6,5 C 4,1 C 59 % 1021,2 hPa 0,0 l/m 0,00 h 0,00 h 0,0 UV-I 5 W/m 0,0 km/h (0 Bft)
06.04.2013 21:00 5,7 C 3,3 C 63 % 1021,8 hPa 0,0 l/m 0,00 h 0,00 h 0,0 UV-I 0 W/m 0,0 km/h (0 Bft)
06.04.2013 22:00 5,2 C 3,7 C 66 % 1022,1 hPa 0,0 l/m 0,00 h 0,00 h 0,0 UV-I 0 W/m 0,3 km/h (0 Bft)
06.04.2013 23:00 4,9 C 3,3 C 68 % 1022,2 hPa 0,0 l/m 0,00 h 0,00 h 0,0 UV-I 0 W/m 0,0 km/h (0 Bft)
07.04.2013 00:00 4,5 C 3,1 C 69 % 1022,5 hPa 0,0 l/m 0,00 h 0,00 h 0,0 UV-I 0 W/m 2,7 km/h (1 Bft)
07.04.2013 01:00 4,7 C 3,4 C 67 % 1022,7 hPa 0,0 l/m 0,00 h 0,00 h 0,0 UV-I 0 W/m 6,7 km/h (2 Bft)
07.04.2013 02:00 4,2 C 3,0 C 70 % 1022,8 hPa 0,0 l/m 0,00 h 0,00 h 0,0 UV-I 0 W/m 6,5 km/h (2 Bft)
07.04.2013 03:00 3,4 C 1,9 C 75 % 1022,8 hPa 0,0 l/m 0,00 h 0,00 h 0,0 UV-I 0 W/m 1,3 km/h (1 Bft)
07.04.2013 04:00 2,1 C -0,7 C 77 % 1022,6 hPa 0,0 l/m 0,00 h 0,00 h 0,0 UV-I 0 W/m 0,0 km/h (0 Bft)
07.04.2013 05:00 0,4 C -2,6 C 81 % 1022,5 hPa 0,0 l/m 0,00 h 0,00 h 0,0 UV-I 0 W/m 0,0 km/h (0 Bft)
07.04.2013 06:00 -1,0 C -3,4 C 85 % 1022,5 hPa 0,0 l/m 0,00 h 0,00 h 0,0 UV-I 0 W/m 0,0 km/h (0 Bft)
07.04.2013 07:00 -1,6 C -3,3 C 88 % 1022,9 hPa 0,0 l/m 0,00 h 0,00 h 0,0 UV-I 15 W/m 0,0 km/h (0 Bft)
07.04.2013 08:00 -1,1 C -1,6 C 92 % 1022,9 hPa 0,0 l/m 0,00 h 0,00 h 0,0 UV-I 36 W/m 0,0 km/h (0 Bft)
07.04.2013 09:00 1,9 C 3,1 C 92 % 1022,7 hPa 0,0 l/m 0,83 h 0,00 h 0,0 UV-I 292 W/m 1,7 km/h (1 Bft)
07.04.2013 10:00 6,6 C 6,3 C 68 % 1022,2 hPa 0,0 l/m 1,00 h 0,00 h 0,8 UV-I 466 W/m 1,4 km/h (1 Bft)
07.04.2013 11:00 9,4 C 8,3 C 52 % 1021,8 hPa 0,0 l/m 1,00 h 0,00 h 1,6 UV-I 596 W/m 5,8 km/h (2 Bft)
07.04.2013 12:00 10,1 C 10,2 C 46 % 1021,5 hPa 0,0 l/m 0,97 h 0,00 h 2,3 UV-I 677 W/m 7,0 km/h (2 Bft)
07.04.2013 13:00 10,7 C 11,5 C 45 % 1020,8 hPa 0,0 l/m 1,00 h 0,00 h 2,6 UV-I 715 W/m 7,6 km/h (2 Bft)
07.04.2013 14:00 11,1 C 10,0 C 43 % 1019,9 hPa 0,0 l/m 1,00 h 0,00 h 2,3 UV-I 698 W/m 9,3 km/h (2 Bft)
07.04.2013 15:00 11,0 C 10,3 C 42 % 1018,8 hPa 0,0 l/m 0,97 h 0,00 h 1,7 UV-I 633 W/m 9,3 km/h (2 Bft)
07.04.2013 16:00 11,9 C 13,3 C 40 % 1018,0 hPa 0,0 l/m 1,00 h 0,00 h 1,0 UV-I 533 W/m 8,1 km/h (2 Bft)
07.04.2013 17:00 11,5 C 11,1 C 40 % 1017,1 hPa 0,0 l/m 1,00 h 0,00 h 0,5 UV-I 397 W/m 8,9 km/h (2 Bft)
07.04.2013 18:00 11,1 C 9,7 C 40 % 1016,5 hPa 0,0 l/m 0,87 h 0,00 h 0,0 UV-I 207 W/m 7,2 km/h (2 Bft)
07.04.2013 19:00 10,1 C 8,1 C 42 % 1016,1 hPa 0,0 l/m 0,43 h 0,00 h 0,0 UV-I 58 W/m 3,8 km/h (1 Bft)
07.04.2013 20:00 8,4 C 6,0 C 47 % 1016,0 hPa 0,0 l/m 0,00 h 0,00 h 0,0 UV-I 7 W/m 0,5 km/h (0 Bft)
07.04.2013 21:00 6,7 C 4,6 C 53 % 1015,9 hPa 0,0 l/m 0,00 h 0,00 h 0,0 UV-I 0 W/m 0,6 km/h (0 Bft)
07.04.2013 22:00 5,4 C 3,4 C 56 % 1015,4 hPa 0,0 l/m 0,00 h 0,00 h 0,0 UV-I 0 W/m 0,6 km/h (0 Bft)
07.04.2013 23:00 4,5 C 1,9 C 59 % 1014,5 hPa 0,0 l/m 0,00 h 0,00 h 0,0 UV-I 0 W/m 0,2 km/h (0 Bft)
Min-Datum _ 01.04.13 01.04.13 07.04.13 05.04.13 - - - - - 01.04.13
_ Min-Zeit 06:14 06:06 17:04 05:40 - - - - - 00:00
Minimum _ -5,1 C -6,6 C 38 % 1008,8 hPa - - - - - 0,0 km/h (0 Bft)
Max-Datum _ 07.04.13 07.04.13 01.04.13 07.04.13 01.04.13 01.04.13 06.04.13 07.04.13 03.04.13 03.04.13
_ Max-Zeit 17:02 16:30 09:06 08:26 00:00 09:06 06:38 13:22 13:48 12:30
Maximum _ 12,4 C 16,2 C 97 % 1023,0 hPa 0,0 l/m 0,03 h 0,03 h 2,6 UV-I 731 W/m 46,3 km/h
S-SO (6 Bft)
Durchschnitt _ 3,5 C 2,6 C 69 % 1013,9 hPa #0,0 l/m #36:57 h #2:12 h 1,1 UV-I 237 W/m 7,0 km/h (2 Bft)
© 2013 W. Hausmann